createdAt,value
2019-01-23T00:00:08.000Z,28.5
2019-01-23T00:01:08.000Z,28.5
2019-01-23T00:02:08.000Z,28.5
2019-01-23T00:04:08.000Z,28.5
2019-01-23T00:06:08.000Z,28.4
2019-01-23T00:08:09.000Z,28.5
2019-01-23T00:09:09.000Z,28.5
2019-01-23T00:11:09.000Z,28.5
2019-01-23T00:12:09.000Z,28.5
2019-01-23T00:14:09.000Z,28.4
2019-01-23T00:16:09.000Z,28.4
2019-01-23T00:17:54.000Z,28.4
2019-01-23T00:19:09.000Z,28.4
2019-01-23T00:21:09.000Z,28.4
2019-01-23T00:22:09.000Z,28.4
2019-01-23T00:23:09.000Z,28.4
2019-01-23T00:25:09.000Z,28.4
2019-01-23T00:26:09.000Z,28.4
2019-01-23T00:28:09.000Z,28.4
2019-01-23T00:29:09.000Z,28.4
2019-01-23T00:30:09.000Z,28.4
2019-01-23T00:32:09.000Z,28.4
2019-01-23T00:33:09.000Z,28.4
2019-01-23T00:35:09.000Z,28.4
2019-01-23T00:37:09.000Z,28.4
2019-01-23T00:39:09.000Z,28.4
2019-01-23T00:40:09.000Z,28.4
2019-01-23T00:42:09.000Z,28.4
2019-01-23T00:44:09.000Z,28.4
2019-01-23T00:45:09.000Z,28.4
2019-01-23T00:46:09.000Z,28.4
2019-01-23T00:47:09.000Z,28.4
2019-01-23T00:49:09.000Z,28.4
2019-01-23T00:50:09.000Z,28.4
2019-01-23T00:51:09.000Z,28.4
2019-01-23T00:53:09.000Z,28.3
2019-01-23T00:54:09.000Z,28.3
2019-01-23T00:56:09.000Z,28.4
2019-01-23T00:57:09.000Z,28.4
2019-01-23T00:59:09.000Z,28.4
2019-01-23T01:01:09.000Z,28.4
2019-01-23T01:03:09.000Z,28.4
2019-01-23T01:04:09.000Z,28.3
2019-01-23T01:05:54.000Z,28.3
2019-01-23T01:07:09.000Z,28.3
2019-01-23T01:09:09.000Z,28.3
2019-01-23T01:10:09.000Z,28.3
2019-01-23T01:12:08.000Z,28.3
2019-01-23T01:14:08.000Z,28.3
2019-01-23T01:15:08.000Z,28.3
2019-01-23T01:17:08.000Z,28.3
2019-01-23T01:19:08.000Z,28.3
2019-01-23T01:21:08.000Z,28.3
2019-01-23T01:23:08.000Z,28.3
2019-01-23T01:24:08.000Z,28.3
2019-01-23T01:26:08.000Z,28.3
2019-01-23T01:28:08.000Z,28.3
2019-01-23T01:30:08.000Z,28.3
2019-01-23T01:31:08.000Z,28.3
2019-01-23T01:32:08.000Z,28.3
2019-01-23T01:34:08.000Z,28.3
2019-01-23T01:35:53.000Z,28.3
2019-01-23T01:37:08.000Z,28.3
2019-01-23T01:39:08.000Z,28.3
2019-01-23T01:40:08.000Z,28.3
2019-01-23T01:42:08.000Z,28.3
2019-01-23T01:44:08.000Z,28.3
2019-01-23T01:45:08.000Z,28.3
2019-01-23T01:46:08.000Z,28.3
2019-01-23T01:47:08.000Z,28.3
2019-01-23T01:49:08.000Z,28.3
2019-01-23T01:50:53.000Z,28.3
2019-01-23T01:52:08.000Z,28.3
2019-01-23T01:53:08.000Z,28.3
2019-01-23T01:54:08.000Z,28.3
2019-01-23T01:55:08.000Z,28.3
2019-01-23T01:57:08.000Z,28.3
2019-01-23T01:58:08.000Z,28.3
2019-01-23T02:00:08.000Z,28.3
2019-01-23T02:02:08.000Z,28.3
2019-01-23T02:04:08.000Z,28.2
2019-01-23T02:06:08.000Z,28.2
2019-01-23T02:07:08.000Z,28.2
2019-01-23T02:09:08.000Z,28.2
2019-01-23T02:11:08.000Z,28.2
2019-01-23T02:13:08.000Z,28.3
2019-01-23T02:14:08.000Z,28.3
2019-01-23T02:15:54.000Z,28.2
2019-01-23T02:17:09.000Z,28.2
2019-01-23T02:19:09.000Z,28.2
2019-01-23T02:20:09.000Z,28.2
2019-01-23T02:21:09.000Z,28.3
2019-01-23T02:23:09.000Z,28.3
2019-01-23T02:24:54.000Z,28.2
2019-01-23T02:26:09.000Z,28.2
2019-01-23T02:28:09.000Z,28.2
2019-01-23T02:29:09.000Z,28.2
2019-01-23T02:31:09.000Z,28.2
2019-01-23T02:33:09.000Z,28.2
2019-01-23T02:34:09.000Z,28.2
2019-01-23T02:35:09.000Z,28.2
2019-01-23T02:36:09.000Z,28.2
2019-01-23T02:38:09.000Z,28.2
2019-01-23T02:40:09.000Z,28.2
2019-01-23T02:42:09.000Z,28.2
2019-01-23T02:44:09.000Z,28.2
2019-01-23T02:46:09.000Z,28.2
2019-01-23T02:48:09.000Z,28.2
2019-01-23T02:50:09.000Z,28.2
2019-01-23T02:51:09.000Z,28.2
2019-01-23T02:53:09.000Z,28.2
2019-01-23T02:55:09.000Z,28.2
2019-01-23T02:56:09.000Z,28.2
2019-01-23T02:57:09.000Z,28.2
2019-01-23T02:59:09.000Z,28.2
2019-01-23T03:01:09.000Z,28.2
2019-01-23T03:03:09.000Z,28.1
2019-01-23T03:04:09.000Z,28.1
2019-01-23T03:06:09.000Z,28.2
2019-01-23T03:07:09.000Z,28.2
2019-01-23T03:09:09.000Z,28.1
2019-01-23T03:11:09.000Z,28.1
2019-01-23T03:13:09.000Z,28.2
2019-01-23T03:14:09.000Z,28.2
2019-01-23T03:15:09.000Z,28.2
2019-01-23T03:16:54.000Z,28.2
2019-01-23T03:18:09.000Z,28.1
2019-01-23T03:19:09.000Z,28.1
2019-01-23T03:20:09.000Z,28.1
2019-01-23T03:22:09.000Z,28.1
2019-01-23T03:23:09.000Z,28.1
2019-01-23T03:25:09.000Z,28.1
2019-01-23T03:26:54.000Z,28.1
2019-01-23T03:28:09.000Z,28.1
2019-01-23T03:30:09.000Z,28.1
2019-01-23T03:31:09.000Z,28.1
2019-01-23T03:32:09.000Z,28.1
2019-01-23T03:34:09.000Z,28.1
2019-01-23T03:35:54.000Z,28.1
2019-01-23T03:37:09.000Z,28.1
2019-01-23T03:39:09.000Z,28.1
2019-01-23T03:41:09.000Z,28.1
2019-01-23T03:43:09.000Z,28.1
2019-01-23T03:45:09.000Z,28.1
2019-01-23T03:46:09.000Z,28.1
2019-01-23T03:48:09.000Z,28.1
2019-01-23T03:50:09.000Z,28.1
2019-01-23T03:52:09.000Z,28.1
2019-01-23T03:54:09.000Z,28.1
2019-01-23T03:55:09.000Z,28.1
2019-01-23T03:57:09.000Z,28.1
2019-01-23T03:58:09.000Z,28.1
2019-01-23T04:00:09.000Z,28.1
2019-01-23T04:02:09.000Z,28.1
2019-01-23T04:04:09.000Z,28.1
2019-01-23T04:05:09.000Z,28.1
2019-01-23T04:07:09.000Z,28.1
2019-01-23T04:09:09.000Z,28.1
2019-01-23T04:10:09.000Z,28.1
2019-01-23T04:12:09.000Z,28.1
2019-01-23T04:14:09.000Z,28.1
2019-01-23T04:16:09.000Z,28.1
2019-01-23T04:18:09.000Z,28.1
2019-01-23T04:19:09.000Z,28.1
2019-01-23T04:20:09.000Z,28.1
2019-01-23T04:21:09.000Z,28.1
2019-01-23T04:23:09.000Z,28.1
2019-01-23T04:24:09.000Z,28.1
2019-01-23T04:26:09.000Z,28.1
2019-01-23T04:27:09.000Z,28.1
2019-01-23T04:29:09.000Z,28.1
2019-01-23T04:30:54.000Z,28
2019-01-23T04:32:09.000Z,28
2019-01-23T04:34:09.000Z,28
2019-01-23T04:35:54.000Z,28
2019-01-23T04:37:09.000Z,28
2019-01-23T04:38:09.000Z,28
2019-01-23T04:40:09.000Z,28
2019-01-23T04:41:09.000Z,28
2019-01-23T04:43:09.000Z,28
2019-01-23T04:45:09.000Z,28
2019-01-23T04:47:09.000Z,28
2019-01-23T04:49:09.000Z,28
2019-01-23T04:51:09.000Z,28
2019-01-23T04:52:09.000Z,28
2019-01-23T04:53:09.000Z,28
2019-01-23T04:55:09.000Z,28
2019-01-23T04:56:54.000Z,28
2019-01-23T04:58:09.000Z,28
2019-01-23T04:59:09.000Z,28
2019-01-23T05:01:09.000Z,28
2019-01-23T05:02:09.000Z,28
2019-01-23T05:03:09.000Z,28
2019-01-23T05:04:09.000Z,28
2019-01-23T05:06:09.000Z,28
2019-01-23T05:08:09.000Z,28
2019-01-23T05:10:09.000Z,28
2019-01-23T05:11:09.000Z,28
2019-01-23T05:13:09.000Z,28
2019-01-23T05:14:09.000Z,28
2019-01-23T05:16:09.000Z,28
2019-01-23T05:18:09.000Z,28
2019-01-23T05:20:09.000Z,28
2019-01-23T05:21:09.000Z,28
2019-01-23T05:23:09.000Z,28
2019-01-23T05:24:09.000Z,28
2019-01-23T05:25:09.000Z,28
2019-01-23T05:26:09.000Z,28
2019-01-23T05:28:09.000Z,28
2019-01-23T05:29:54.000Z,28
2019-01-23T05:31:09.000Z,28
2019-01-23T05:32:09.000Z,28
2019-01-23T05:34:09.000Z,27.9
2019-01-23T05:35:54.000Z,27.9
2019-01-23T05:37:09.000Z,27.9
2019-01-23T05:39:09.000Z,28
2019-01-23T05:40:09.000Z,28
2019-01-23T05:42:09.000Z,28
2019-01-23T05:44:09.000Z,28
2019-01-23T05:45:09.000Z,28
2019-01-23T05:47:09.000Z,28
2019-01-23T05:49:09.000Z,28
2019-01-23T05:51:09.000Z,28
2019-01-23T05:52:54.000Z,28
2019-01-23T05:54:09.000Z,28
2019-01-23T05:55:09.000Z,28
2019-01-23T05:56:54.000Z,28
2019-01-23T05:58:09.000Z,28
2019-01-23T05:59:54.000Z,28
2019-01-23T06:02:09.000Z,28
2019-01-23T06:04:09.000Z,28
2019-01-23T06:05:09.000Z,28
2019-01-23T06:06:09.000Z,28
2019-01-23T06:08:09.000Z,28.1
2019-01-23T06:10:09.000Z,28.1
2019-01-23T06:12:09.000Z,28.1
2019-01-23T06:13:09.000Z,28.1
2019-01-23T06:15:09.000Z,28.1
2019-01-23T06:17:09.000Z,28.1
2019-01-23T06:18:09.000Z,28.2
2019-01-23T06:19:09.000Z,28.2
2019-01-23T06:20:54.000Z,28.3
2019-01-23T06:23:09.000Z,28.3
2019-01-23T06:25:09.000Z,28.4
2019-01-23T06:27:09.000Z,28.4
2019-01-23T06:29:09.000Z,28.5
2019-01-23T06:30:09.000Z,28.5
2019-01-23T06:32:09.000Z,28.5
2019-01-23T06:33:09.000Z,28.6
2019-01-23T06:35:09.000Z,28.6
2019-01-23T06:36:09.000Z,28.6
2019-01-23T06:38:09.000Z,28.6
2019-01-23T06:40:09.000Z,28.6
2019-01-23T06:42:09.000Z,28.6
2019-01-23T06:44:09.000Z,28.7
2019-01-23T06:46:09.000Z,28.7
2019-01-23T06:47:09.000Z,28.7
2019-01-23T06:48:09.000Z,28.7
2019-01-23T06:50:09.000Z,28.7
2019-01-23T06:51:09.000Z,28.7
2019-01-23T06:53:09.000Z,28.7
2019-01-23T06:55:09.000Z,28.7
2019-01-23T06:56:09.000Z,28.7
2019-01-23T06:57:09.000Z,28.7
2019-01-23T06:58:09.000Z,28.7
2019-01-23T07:00:09.000Z,28.7
2019-01-23T07:02:09.000Z,28.7
2019-01-23T07:03:09.000Z,28.7
2019-01-23T07:04:09.000Z,28.7
2019-01-23T07:06:09.000Z,28.8
2019-01-23T07:07:54.000Z,28.7
2019-01-23T07:09:09.000Z,28.7
2019-01-23T07:10:09.000Z,28.7
2019-01-23T07:12:09.000Z,28.7
2019-01-23T07:13:53.000Z,28.7
2019-01-23T07:15:09.000Z,28.7
2019-01-23T07:16:53.000Z,28.8
2019-01-23T07:18:09.000Z,28.8
2019-01-23T07:20:09.000Z,28.8
2019-01-23T07:22:09.000Z,28.8
2019-01-23T07:24:09.000Z,28.8
2019-01-23T07:25:09.000Z,28.9
2019-01-23T07:27:09.000Z,28.9
2019-01-23T07:28:09.000Z,29
2019-01-23T07:29:09.000Z,29
2019-01-23T07:31:09.000Z,29
2019-01-23T07:33:09.000Z,29
2019-01-23T07:34:09.000Z,29
2019-01-23T07:35:09.000Z,29
2019-01-23T07:37:09.000Z,29
2019-01-23T07:38:09.000Z,29
2019-01-23T07:39:09.000Z,29
2019-01-23T07:40:09.000Z,29
2019-01-23T07:42:09.000Z,29.1
2019-01-23T07:43:09.000Z,29.1
2019-01-23T07:44:09.000Z,29.1
2019-01-23T07:46:09.000Z,29.1
2019-01-23T07:47:09.000Z,29.1
2019-01-23T07:48:09.000Z,29.2
2019-01-23T07:49:09.000Z,29.2
2019-01-23T07:51:09.000Z,29.2
2019-01-23T07:53:09.000Z,29.2
2019-01-23T07:55:09.000Z,29.2
2019-01-23T07:56:09.000Z,29.2
2019-01-23T07:58:09.000Z,29.2
2019-01-23T08:00:09.000Z,29.3
2019-01-23T08:02:09.000Z,29.3
2019-01-23T08:04:09.000Z,29.3
2019-01-23T08:06:09.000Z,29.3
2019-01-23T08:07:09.000Z,29.3
2019-01-23T08:08:09.000Z,29.3
2019-01-23T08:09:09.000Z,29.3
2019-01-23T08:10:09.000Z,29.3
2019-01-23T08:11:09.000Z,29.3
2019-01-23T08:13:09.000Z,29.4
2019-01-23T08:15:09.000Z,29.4
2019-01-23T08:16:09.000Z,29.4
2019-01-23T08:17:54.000Z,29.4
2019-01-23T08:19:09.000Z,29.4
2019-01-23T08:20:09.000Z,29.5
2019-01-23T08:21:09.000Z,29.5
2019-01-23T08:23:09.000Z,29.5
2019-01-23T08:24:09.000Z,29.6
2019-01-23T08:25:09.000Z,29.6
2019-01-23T08:27:09.000Z,29.6
2019-01-23T08:28:09.000Z,29.6
2019-01-23T08:30:09.000Z,29.6
2019-01-23T08:32:09.000Z,29.6
2019-01-23T08:33:09.000Z,29.6
2019-01-23T08:34:09.000Z,29.6
2019-01-23T08:35:09.000Z,29.6
2019-01-23T08:37:09.000Z,29.7
2019-01-23T08:38:09.000Z,29.7
2019-01-23T08:40:09.000Z,29.8
2019-01-23T08:41:09.000Z,29.7
2019-01-23T08:43:09.000Z,29.7
2019-01-23T08:45:09.000Z,29.8
2019-01-23T08:47:09.000Z,29.8
2019-01-23T08:48:09.000Z,29.8
2019-01-23T08:50:09.000Z,29.9
2019-01-23T08:52:09.000Z,29.9
2019-01-23T08:53:09.000Z,29.9
2019-01-23T08:54:09.000Z,29.9
2019-01-23T08:56:09.000Z,30
2019-01-23T08:58:09.000Z,30
2019-01-23T08:59:09.000Z,30
2019-01-23T09:01:09.000Z,30.1
2019-01-23T09:03:09.000Z,30.1
2019-01-23T09:04:09.000Z,30.2
2019-01-23T09:06:09.000Z,30.2
2019-01-23T09:08:09.000Z,30.3
2019-01-23T09:09:09.000Z,30.3
2019-01-23T09:11:09.000Z,30.4
2019-01-23T09:12:54.000Z,30.5
2019-01-23T09:14:09.000Z,30.5
2019-01-23T09:15:09.000Z,30.6
2019-01-23T09:17:09.000Z,30.6
2019-01-23T09:19:09.000Z,30.7
2019-01-23T09:21:09.000Z,30.8
2019-01-23T09:23:09.000Z,30.9
2019-01-23T09:25:09.000Z,31
2019-01-23T09:27:09.000Z,31.1
2019-01-23T09:29:09.000Z,31.2
2019-01-23T09:30:09.000Z,31.2
2019-01-23T09:32:09.000Z,31.4
2019-01-23T09:34:09.000Z,31.5
2019-01-23T09:35:54.000Z,30.7
2019-01-23T09:37:09.000Z,29.7
2019-01-23T09:38:09.000Z,28.9
2019-01-23T09:39:09.000Z,28.2
2019-01-23T09:40:54.000Z,27.5
2019-01-23T09:42:09.000Z,27
2019-01-23T09:43:09.000Z,26.8
2019-01-23T09:45:09.000Z,26.3
2019-01-23T09:46:54.000Z,26
2019-01-23T09:48:09.000Z,25.9
2019-01-23T09:50:09.000Z,25.7
2019-01-23T09:52:09.000Z,26.1
2019-01-23T09:54:09.000Z,27
2019-01-23T09:56:09.000Z,27.6
2019-01-23T09:58:09.000Z,27.9
2019-01-23T10:00:09.000Z,28.2
2019-01-23T10:02:09.000Z,28.5
2019-01-23T10:03:09.000Z,28.5
2019-01-23T10:04:09.000Z,28.6
2019-01-23T10:05:09.000Z,28.8
2019-01-23T10:07:09.000Z,28.9
2019-01-23T10:09:09.000Z,29.1
2019-01-23T10:10:09.000Z,29.1
2019-01-23T10:11:09.000Z,29.2
2019-01-23T10:13:09.000Z,29.4
2019-01-23T10:16:09.000Z,29.5
2019-01-23T10:18:09.000Z,29.6
2019-01-23T10:20:09.000Z,29.7
2019-01-23T10:21:09.000Z,29.7
2019-01-23T10:25:10.000Z,29.9
2019-01-23T10:26:10.000Z,29.9
2019-01-23T10:27:10.000Z,30
2019-01-23T10:29:10.000Z,30.1
2019-01-23T10:30:55.000Z,30.1
2019-01-23T10:32:10.000Z,30.2
2019-01-23T10:34:10.000Z,30.2
2019-01-23T10:35:10.000Z,30.2
2019-01-23T10:36:55.000Z,30.3
2019-01-23T10:38:10.000Z,30.3
2019-01-23T10:40:10.000Z,30.4
2019-01-23T10:41:10.000Z,30.4
2019-01-23T10:43:10.000Z,30.4
2019-01-23T10:45:10.000Z,30.5
2019-01-23T10:46:10.000Z,30.5
2019-01-23T10:48:10.000Z,30.5
2019-01-23T10:50:11.000Z,30.6
2019-01-23T10:52:11.000Z,30.6
2019-01-23T10:54:11.000Z,30.6
2019-01-23T10:55:56.000Z,30.6
2019-01-23T10:57:11.000Z,30.6
2019-01-23T10:58:11.000Z,30.6
2019-01-23T11:00:11.000Z,30.7
2019-01-23T11:02:11.000Z,30.7
2019-01-23T11:04:11.000Z,30.8
2019-01-23T11:05:11.000Z,30.8
2019-01-23T11:06:56.000Z,30.8
2019-01-23T11:08:11.000Z,30.8
2019-01-23T11:09:11.000Z,30.8
2019-01-23T11:11:11.000Z,30.8
2019-01-23T11:12:11.000Z,30.8
2019-01-23T11:13:56.000Z,30.8
2019-01-23T11:15:11.000Z,30.8
2019-01-23T11:16:56.000Z,30.8
2019-01-23T11:18:11.000Z,30.8
2019-01-23T11:19:56.000Z,30.8
2019-01-23T11:21:11.000Z,30.8
2019-01-23T11:22:56.000Z,30.8
2019-01-23T11:24:11.000Z,30.8
2019-01-23T11:25:11.000Z,30.8
2019-01-23T11:26:11.000Z,30.8
2019-01-23T11:28:11.000Z,30.8
2019-01-23T11:30:11.000Z,30.8
2019-01-23T11:31:56.000Z,30.9
2019-01-23T11:32:56.000Z,30.9
2019-01-23T11:34:11.000Z,30.9
2019-01-23T11:35:11.000Z,30.9
2019-01-23T11:36:11.000Z,30.9
2019-01-23T11:38:11.000Z,31
2019-01-23T11:39:11.000Z,31
2019-01-23T11:40:11.000Z,31.1
2019-01-23T11:42:11.000Z,31.1
2019-01-23T11:44:11.000Z,31.1
2019-01-23T11:45:11.000Z,31.1
2019-01-23T11:47:11.000Z,31.2
2019-01-23T11:48:11.000Z,31.2
2019-01-23T11:49:11.000Z,31.2
2019-01-23T11:51:11.000Z,31.2
2019-01-23T11:52:11.000Z,31.2
2019-01-23T11:53:10.000Z,31.2
2019-01-23T11:55:10.000Z,31.3
2019-01-23T11:57:10.000Z,31.2
2019-01-23T11:59:10.000Z,31.2
2019-01-23T12:00:55.000Z,31.1
2019-01-23T12:02:10.000Z,31.1
2019-01-23T12:04:10.000Z,31.1
2019-01-23T12:05:10.000Z,31.1
2019-01-23T12:07:10.000Z,31.1
2019-01-23T12:09:10.000Z,31.1
2019-01-23T12:10:55.000Z,31.1
2019-01-23T12:12:10.000Z,31.1
2019-01-23T12:13:10.000Z,31.1
2019-01-23T12:14:10.000Z,31
2019-01-23T12:16:10.000Z,31.1
2019-01-23T12:18:10.000Z,31.1
2019-01-23T12:19:10.000Z,31
2019-01-23T12:21:10.000Z,31.1
2019-01-23T12:23:10.000Z,31
2019-01-23T12:25:10.000Z,31
2019-01-23T12:26:10.000Z,31.1
2019-01-23T12:27:10.000Z,31.1
2019-01-23T12:29:10.000Z,31.1
2019-01-23T12:30:10.000Z,31.1
2019-01-23T12:32:10.000Z,31.1
2019-01-23T12:34:10.000Z,31.2
2019-01-23T12:36:10.000Z,31.2
2019-01-23T12:38:10.000Z,31.2
2019-01-23T12:40:10.000Z,31.2
2019-01-23T12:41:55.000Z,31.1
2019-01-23T12:43:10.000Z,31
2019-01-23T12:45:10.000Z,30.9
2019-01-23T12:47:10.000Z,30.9
2019-01-23T12:49:10.000Z,30.8
2019-01-23T12:51:10.000Z,30.8
2019-01-23T12:52:10.000Z,30.8
2019-01-23T12:54:10.000Z,30.7
2019-01-23T12:55:10.000Z,30.7
2019-01-23T12:57:11.000Z,30.6
2019-01-23T12:59:11.000Z,30.5
2019-01-23T13:00:11.000Z,30.5
2019-01-23T13:02:11.000Z,30.4
2019-01-23T13:04:11.000Z,30.4
2019-01-23T13:06:11.000Z,30.4
2019-01-23T13:08:11.000Z,30.4
2019-01-23T13:09:11.000Z,30.5
2019-01-23T13:10:11.000Z,30.6
2019-01-23T13:11:11.000Z,30.7
2019-01-23T13:13:11.000Z,30.8
2019-01-23T13:15:11.000Z,30.9
2019-01-23T13:17:11.000Z,30.9
2019-01-23T13:18:11.000Z,30.9
2019-01-23T13:19:11.000Z,30.9
2019-01-23T13:21:11.000Z,30.9
2019-01-23T13:23:11.000Z,30.9
2019-01-23T13:24:11.000Z,30.8
2019-01-23T13:25:11.000Z,30.8
2019-01-23T13:27:11.000Z,30.7
2019-01-23T13:29:11.000Z,30.7
2019-01-23T13:30:11.000Z,30.7
2019-01-23T13:31:11.000Z,30.7
2019-01-23T13:32:56.000Z,30.7
2019-01-23T13:34:11.000Z,30.7
2019-01-23T13:36:11.000Z,30.7
2019-01-23T13:38:11.000Z,30.7
2019-01-23T13:39:11.000Z,30.7
2019-01-23T13:41:11.000Z,30.7
2019-01-23T13:42:11.000Z,30.7
2019-01-23T13:43:11.000Z,30.7
2019-01-23T13:45:11.000Z,30.7
2019-01-23T13:47:11.000Z,30.6
2019-01-23T13:48:56.000Z,30.6
2019-01-23T13:50:11.000Z,30.6
2019-01-23T13:51:11.000Z,30.7
2019-01-23T13:52:56.000Z,30.7
2019-01-23T13:54:11.000Z,30.7
2019-01-23T13:55:11.000Z,30.7
2019-01-23T13:57:11.000Z,30.7
2019-01-23T13:58:11.000Z,30.7
2019-01-23T13:59:11.000Z,30.7
2019-01-23T14:00:11.000Z,30.7
2019-01-23T14:02:11.000Z,30.8
2019-01-23T14:04:11.000Z,30.8
2019-01-23T14:06:11.000Z,30.7
2019-01-23T14:08:11.000Z,30.8
2019-01-23T14:10:11.000Z,30.7
2019-01-23T14:12:11.000Z,30.7
2019-01-23T14:13:55.000Z,30.7
2019-01-23T14:15:11.000Z,30.7
2019-01-23T14:17:11.000Z,30.8
2019-01-23T14:19:11.000Z,30.8
2019-01-23T14:21:11.000Z,30.8
2019-01-23T14:22:11.000Z,30.8
2019-01-23T14:24:11.000Z,30.8
2019-01-23T14:25:11.000Z,30.8
2019-01-23T14:27:11.000Z,30.8
2019-01-23T14:28:11.000Z,30.8
2019-01-23T14:30:11.000Z,30.8
2019-01-23T14:31:56.000Z,30.8
2019-01-23T14:33:11.000Z,30.8
2019-01-23T14:35:11.000Z,30.8
2019-01-23T14:36:11.000Z,30.8
2019-01-23T14:37:56.000Z,30.8
2019-01-23T14:39:11.000Z,30.8
2019-01-23T14:41:11.000Z,30.8
2019-01-23T14:42:11.000Z,30.8
2019-01-23T14:43:11.000Z,30.8
2019-01-23T14:44:11.000Z,30.8
2019-01-23T14:46:11.000Z,30.9
2019-01-23T14:47:11.000Z,30.9
2019-01-23T14:49:11.000Z,30.9
2019-01-23T14:50:11.000Z,30.9
2019-01-23T14:52:11.000Z,30.9
2019-01-23T14:53:11.000Z,31
2019-01-23T14:55:11.000Z,31
2019-01-23T14:57:11.000Z,31
2019-01-23T14:59:11.000Z,31.1
2019-01-23T15:00:11.000Z,31.1
2019-01-23T15:01:11.000Z,31.1
2019-01-23T15:03:11.000Z,31.1
2019-01-23T15:04:11.000Z,31.1
2019-01-23T15:06:10.000Z,31.1
2019-01-23T15:07:10.000Z,31.1
2019-01-23T15:08:11.000Z,31.1
2019-01-23T15:10:10.000Z,31.1
2019-01-23T15:11:10.000Z,31.1
2019-01-23T15:13:10.000Z,31.2
2019-01-23T15:14:11.000Z,31.2
2019-01-23T15:16:11.000Z,31.2
2019-01-23T15:17:11.000Z,31.2
2019-01-23T15:19:10.000Z,31.2
2019-01-23T15:20:11.000Z,31.2
2019-01-23T15:22:11.000Z,31.2
2019-01-23T15:24:11.000Z,31.2
2019-01-23T15:26:10.000Z,31.2
2019-01-23T15:27:11.000Z,31.2
2019-01-23T15:28:11.000Z,31.2
2019-01-23T15:29:11.000Z,31.2
2019-01-23T15:31:11.000Z,31.2
2019-01-23T15:32:11.000Z,31.1
2019-01-23T15:34:11.000Z,31.1
2019-01-23T15:35:11.000Z,31
2019-01-23T15:37:11.000Z,31
2019-01-23T15:39:11.000Z,31
2019-01-23T15:40:55.000Z,31
2019-01-23T15:42:11.000Z,31
2019-01-23T15:43:11.000Z,31
2019-01-23T15:45:11.000Z,31
2019-01-23T15:47:11.000Z,31
2019-01-23T15:49:11.000Z,31
2019-01-23T15:50:11.000Z,30.9
2019-01-23T15:51:11.000Z,30.9
2019-01-23T15:52:11.000Z,30.9
2019-01-23T15:54:11.000Z,30.9
2019-01-23T15:55:11.000Z,30.9
2019-01-23T15:57:11.000Z,30.9
2019-01-23T15:58:11.000Z,30.9
2019-01-23T16:00:11.000Z,30.9
2019-01-23T16:01:11.000Z,30.9
2019-01-23T16:03:11.000Z,30.9
2019-01-23T16:04:11.000Z,30.9
2019-01-23T16:06:11.000Z,30.9
2019-01-23T16:08:11.000Z,30.9
2019-01-23T16:10:11.000Z,30.9
2019-01-23T16:11:11.000Z,30.9
2019-01-23T16:12:11.000Z,30.9
2019-01-23T16:13:56.000Z,30.8
2019-01-23T16:15:11.000Z,30.8
2019-01-23T16:16:11.000Z,30.8
2019-01-23T16:17:11.000Z,30.8
2019-01-23T16:19:10.000Z,30.8
2019-01-23T16:20:11.000Z,30.8
2019-01-23T16:21:11.000Z,30.8
2019-01-23T16:23:11.000Z,30.8
2019-01-23T16:25:11.000Z,30.8
2019-01-23T16:26:11.000Z,30.8
2019-01-23T16:27:11.000Z,30.8
2019-01-23T16:29:11.000Z,30.8
2019-01-23T16:31:11.000Z,30.8
2019-01-23T16:33:11.000Z,30.7
2019-01-23T16:34:11.000Z,30.8
2019-01-23T16:36:11.000Z,30.8
2019-01-23T16:37:11.000Z,30.7
2019-01-23T16:39:11.000Z,30.7
2019-01-23T16:40:11.000Z,30.7
2019-01-23T16:42:11.000Z,30.7
2019-01-23T16:44:11.000Z,30.8
2019-01-23T16:45:55.000Z,30.7
2019-01-23T16:47:11.000Z,30.7
2019-01-23T16:49:11.000Z,30.7
2019-01-23T16:50:55.000Z,30.7
2019-01-23T16:52:11.000Z,30.7
2019-01-23T16:54:11.000Z,30.7
2019-01-23T16:56:11.000Z,30.7
2019-01-23T16:58:11.000Z,30.7
2019-01-23T17:00:11.000Z,30.7
2019-01-23T17:01:11.000Z,30.7
2019-01-23T17:02:11.000Z,30.7
2019-01-23T17:04:11.000Z,30.7
2019-01-23T17:05:11.000Z,30.7
2019-01-23T17:06:11.000Z,30.7
2019-01-23T17:08:11.000Z,30.7
2019-01-23T17:10:11.000Z,30.7
2019-01-23T17:11:11.000Z,30.7
2019-01-23T17:13:11.000Z,30.7
2019-01-23T17:14:11.000Z,30.7
2019-01-23T17:15:56.000Z,30.6
2019-01-23T17:25:43.000Z,30.5
2019-01-23T17:27:43.000Z,30.5
2019-01-23T17:29:28.000Z,30.5
2019-01-23T17:30:43.000Z,30.5
2019-01-23T17:32:43.000Z,30.5
2019-01-23T17:34:43.000Z,30.5
2019-01-23T17:36:43.000Z,30.5
2019-01-23T17:38:43.000Z,30.4
2019-01-23T17:39:43.000Z,30.4
2019-01-23T17:41:43.000Z,30.4
2019-01-23T17:43:27.000Z,30.5
2019-01-23T17:44:43.000Z,30.4
2019-01-23T17:45:43.000Z,30.5
2019-01-23T17:47:27.000Z,30.4
2019-01-23T17:48:43.000Z,30.4
2019-01-23T17:49:43.000Z,30.4
2019-01-23T17:50:43.000Z,30.4
2019-01-23T17:52:43.000Z,30.4
2019-01-23T17:54:43.000Z,30.4
2019-01-23T17:55:43.000Z,30.4
2019-01-23T17:57:27.000Z,30.4
2019-01-23T17:58:43.000Z,30.4
2019-01-23T17:59:43.000Z,30.4
2019-01-23T18:01:43.000Z,30.4
2019-01-23T18:02:43.000Z,30.4
2019-01-23T18:04:43.000Z,30.4
2019-01-23T18:06:43.000Z,30.4
2019-01-23T18:07:43.000Z,30.4
2019-01-23T18:09:27.000Z,30.4
2019-01-23T18:10:43.000Z,30.4
2019-01-23T18:11:43.000Z,30.4
2019-01-23T18:12:43.000Z,30.4
2019-01-23T18:14:43.000Z,30.4
2019-01-23T18:16:43.000Z,30.3
2019-01-23T18:17:42.000Z,30.3
2019-01-23T18:19:42.000Z,30.3
2019-01-23T18:21:42.000Z,30.3
2019-01-23T18:22:42.000Z,30.3
2019-01-23T18:24:42.000Z,30.3
2019-01-23T18:25:42.000Z,30.3
2019-01-23T18:26:42.000Z,30.3
2019-01-23T18:28:42.000Z,30.3
2019-01-23T18:29:42.000Z,30.3
2019-01-23T18:31:42.000Z,30.3
2019-01-23T18:33:42.000Z,30.3
2019-01-23T18:34:42.000Z,30.3
2019-01-23T18:36:42.000Z,30.3
2019-01-23T18:38:42.000Z,30.3
2019-01-23T18:39:42.000Z,30.3
2019-01-23T18:40:42.000Z,30.2
2019-01-23T18:42:42.000Z,30.2
2019-01-23T18:44:42.000Z,30.2
2019-01-23T18:46:42.000Z,30.2
2019-01-23T18:48:42.000Z,30.2
2019-01-23T18:50:42.000Z,30.2
2019-01-23T18:52:42.000Z,30.2
2019-01-23T18:53:42.000Z,30.2
2019-01-23T18:55:42.000Z,30.2
2019-01-23T18:56:42.000Z,30.2
2019-01-23T18:57:42.000Z,30.2
2019-01-23T18:59:42.000Z,30.2
2019-01-23T19:01:42.000Z,30.2
2019-01-23T19:02:42.000Z,30.2
2019-01-23T19:04:27.000Z,30.2
2019-01-23T19:05:42.000Z,30.2
2019-01-23T19:06:42.000Z,30.2
2019-01-23T19:08:42.000Z,30.2
2019-01-23T19:10:27.000Z,30.1
2019-01-23T19:11:42.000Z,30.1
2019-01-23T19:12:42.000Z,30.1
2019-01-23T19:14:42.000Z,30.1
2019-01-23T19:15:42.000Z,30.1
2019-01-23T19:16:42.000Z,30.1
2019-01-23T19:18:42.000Z,30.1
2019-01-23T19:19:42.000Z,30.1
2019-01-23T19:21:42.000Z,30.1
2019-01-23T19:22:42.000Z,30.1
2019-01-23T19:24:42.000Z,30.1
2019-01-23T19:25:42.000Z,30.1
2019-01-23T19:27:42.000Z,30.1
2019-01-23T19:28:42.000Z,30.1
2019-01-23T19:30:27.000Z,30.1
2019-01-23T19:31:42.000Z,30.1
2019-01-23T19:33:42.000Z,30.1
2019-01-23T19:35:42.000Z,30.1
2019-01-23T19:37:42.000Z,30
2019-01-23T19:39:42.000Z,30.1
2019-01-23T19:40:42.000Z,30.1
2019-01-23T19:42:42.000Z,30.1
2019-01-23T19:43:42.000Z,30
2019-01-23T19:45:42.000Z,30.1
2019-01-23T19:47:27.000Z,30
2019-01-23T19:48:42.000Z,30
2019-01-23T19:49:42.000Z,30
2019-01-23T19:51:42.000Z,30
2019-01-23T19:53:42.000Z,30
2019-01-23T19:55:42.000Z,30
2019-01-23T19:57:42.000Z,30
2019-01-23T19:58:42.000Z,30
2019-01-23T20:00:42.000Z,30
2019-01-23T20:01:42.000Z,30
2019-01-23T20:03:42.000Z,30
2019-01-23T20:05:42.000Z,30
2019-01-23T20:07:42.000Z,30
2019-01-23T20:09:42.000Z,30
2019-01-23T20:10:42.000Z,30
2019-01-23T20:12:42.000Z,30
2019-01-23T20:14:42.000Z,30
2019-01-23T20:16:42.000Z,30
2019-01-23T20:18:42.000Z,30
2019-01-23T20:20:27.000Z,30
2019-01-23T20:21:42.000Z,30
2019-01-23T20:22:42.000Z,30
2019-01-23T20:24:42.000Z,30
2019-01-23T20:26:43.000Z,29.9
2019-01-23T20:27:43.000Z,29.9
2019-01-23T20:28:43.000Z,29.9
2019-01-23T20:29:43.000Z,29.9
2019-01-23T20:31:43.000Z,29.9
2019-01-23T20:32:43.000Z,29.9
2019-01-23T20:34:43.000Z,29.9
2019-01-23T20:36:43.000Z,29.9
2019-01-23T20:37:43.000Z,29.9
2019-01-23T20:39:43.000Z,29.9
2019-01-23T20:41:43.000Z,29.9
2019-01-23T20:43:28.000Z,29.9
2019-01-23T21:27:07.000Z,29.6
2019-01-23T21:28:07.000Z,29.6
2019-01-23T21:29:07.000Z,29.6
2019-01-23T21:30:52.000Z,29.6
2019-01-23T21:32:07.000Z,29.6
2019-01-23T21:34:07.000Z,29.7
2019-01-23T21:35:07.000Z,29.7
2019-01-23T21:36:07.000Z,29.7
2019-01-23T21:38:07.000Z,29.7
2019-01-23T21:39:07.000Z,29.7
2019-01-23T21:41:07.000Z,29.7
2019-01-23T21:42:07.000Z,29.7
2019-01-23T21:44:07.000Z,29.7
2019-01-23T21:46:07.000Z,29.7
2019-01-23T21:47:52.000Z,29.7
2019-01-23T21:49:07.000Z,29.7
2019-01-23T21:50:07.000Z,29.7
2019-01-23T21:52:07.000Z,29.7
2019-01-23T21:54:07.000Z,29.6
2019-01-23T21:56:07.000Z,29.6